sensor_id;sensor_type;location;lat;lon;timestamp;pressure;altitude;pressure_sealevel;temperature;humidity
58753;BME280;44525;46.052;13.610;2022-09-19T00:01:29;100326.72;;;12.41;nan
58753;BME280;44525;46.052;13.610;2022-09-19T00:03:57;100328.97;;;12.39;nan
58753;BME280;44525;46.052;13.610;2022-09-19T00:06:24;100323.91;;;12.32;nan
58753;BME280;44525;46.052;13.610;2022-09-19T00:08:51;100309.28;;;12.42;nan
58753;BME280;44525;46.052;13.610;2022-09-19T00:11:18;100315.16;;;12.49;nan
58753;BME280;44525;46.052;13.610;2022-09-19T00:13:45;100304.88;;;12.46;nan
58753;BME280;44525;46.052;13.610;2022-09-19T00:16:22;100304.34;;;12.44;nan
58753;BME280;44525;46.052;13.610;2022-09-19T00:18:50;100305.44;;;12.43;nan
58753;BME280;44525;46.052;13.610;2022-09-19T00:21:25;100301.44;;;12.40;nan
58753;BME280;44525;46.052;13.610;2022-09-19T00:23:51;100300.72;;;12.35;nan
58753;BME280;44525;46.052;13.610;2022-09-19T00:26:36;100299.50;;;12.27;nan
58753;BME280;44525;46.052;13.610;2022-09-19T00:29:05;100289.28;;;12.33;nan
58753;BME280;44525;46.052;13.610;2022-09-19T00:31:34;100283.16;;;12.41;nan
58753;BME280;44525;46.052;13.610;2022-09-19T00:34:00;100285.00;;;12.59;nan
58753;BME280;44525;46.052;13.610;2022-09-19T00:36:26;100283.06;;;12.46;nan
58753;BME280;44525;46.052;13.610;2022-09-19T00:38:52;100278.19;;;12.43;nan
58753;BME280;44525;46.052;13.610;2022-09-19T00:41:22;100269.97;;;12.34;nan
58753;BME280;44525;46.052;13.610;2022-09-19T00:46:23;100255.63;;;12.28;nan
58753;BME280;44525;46.052;13.610;2022-09-19T00:49:11;100258.97;;;12.25;nan
58753;BME280;44525;46.052;13.610;2022-09-19T00:51:45;100270.34;;;12.27;nan
58753;BME280;44525;46.052;13.610;2022-09-19T00:54:27;100262.06;;;12.33;nan
58753;BME280;44525;46.052;13.610;2022-09-19T00:56:56;100266.50;;;12.42;nan
58753;BME280;44525;46.052;13.610;2022-09-19T00:59:25;100256.72;;;12.41;nan
58753;BME280;44525;46.052;13.610;2022-09-19T01:01:54;100254.91;;;12.51;nan
58753;BME280;44525;46.052;13.610;2022-09-19T01:04:22;100251.69;;;12.62;nan
58753;BME280;44525;46.052;13.610;2022-09-19T01:10:19;100247.75;;;12.41;nan
58753;BME280;44525;46.052;13.610;2022-09-19T01:16:05;100256.31;;;12.48;nan
58753;BME280;44525;46.052;13.610;2022-09-19T01:18:37;100249.06;;;12.43;nan
58753;BME280;44525;46.052;13.610;2022-09-19T01:24:16;100250.19;;;12.28;nan
58753;BME280;44525;46.052;13.610;2022-09-19T01:29:55;100244.63;;;12.48;nan
58753;BME280;44525;46.052;13.610;2022-09-19T01:32:28;100248.06;;;12.39;nan
58753;BME280;44525;46.052;13.610;2022-09-19T01:34:59;100247.44;;;12.42;nan
58753;BME280;44525;46.052;13.610;2022-09-19T01:37:30;100241.41;;;12.59;nan
58753;BME280;44525;46.052;13.610;2022-09-19T01:40:01;100223.22;;;12.55;nan
58753;BME280;44525;46.052;13.610;2022-09-19T01:42:28;100218.91;;;12.54;nan
58753;BME280;44525;46.052;13.610;2022-09-19T01:44:53;100212.44;;;12.50;nan
58753;BME280;44525;46.052;13.610;2022-09-19T01:50:19;100196.81;;;12.41;nan
58753;BME280;44525;46.052;13.610;2022-09-19T01:53:09;100198.22;;;12.53;nan
58753;BME280;44525;46.052;13.610;2022-09-19T01:58:39;100192.56;;;12.49;nan
58753;BME280;44525;46.052;13.610;2022-09-19T02:01:09;100192.34;;;12.59;nan
58753;BME280;44525;46.052;13.610;2022-09-19T02:06:43;100182.25;;;12.60;nan
58753;BME280;44525;46.052;13.610;2022-09-19T02:09:40;100188.50;;;12.60;nan
58753;BME280;44525;46.052;13.610;2022-09-19T02:12:10;100192.56;;;12.49;nan
58753;BME280;44525;46.052;13.610;2022-09-19T02:14:38;100186.81;;;12.51;nan
58753;BME280;44525;46.052;13.610;2022-09-19T02:17:09;100189.03;;;12.49;nan
58753;BME280;44525;46.052;13.610;2022-09-19T02:19:41;100187.44;;;12.48;nan
58753;BME280;44525;46.052;13.610;2022-09-19T02:22:13;100178.03;;;12.54;nan
58753;BME280;44525;46.052;13.610;2022-09-19T02:24:42;100170.25;;;12.61;nan
58753;BME280;44525;46.052;13.610;2022-09-19T02:27:15;100166.00;;;12.69;nan
58753;BME280;44525;46.052;13.610;2022-09-19T02:29:45;100151.56;;;12.68;nan
58753;BME280;44525;46.052;13.610;2022-09-19T02:32:14;100154.84;;;12.56;nan
58753;BME280;44525;46.052;13.610;2022-09-19T02:34:42;100163.81;;;12.57;nan
58753;BME280;44525;46.052;13.610;2022-09-19T02:37:34;100155.25;;;12.50;nan
58753;BME280;44525;46.052;13.610;2022-09-19T02:40:21;100158.00;;;12.36;nan
58753;BME280;44525;46.052;13.610;2022-09-19T02:42:59;100163.31;;;12.41;nan
58753;BME280;44525;46.052;13.610;2022-09-19T02:45:41;100161.47;;;12.50;nan
58753;BME280;44525;46.052;13.610;2022-09-19T02:51:01;100155.50;;;12.62;nan
58753;BME280;44525;46.052;13.610;2022-09-19T02:53:33;100160.34;;;12.65;nan
58753;BME280;44525;46.052;13.610;2022-09-19T02:56:02;100163.81;;;12.57;nan
58753;BME280;44525;46.052;13.610;2022-09-19T02:58:34;100158.75;;;12.50;nan
58753;BME280;44525;46.052;13.610;2022-09-19T03:01:07;100154.22;;;12.59;nan
58753;BME280;44525;46.052;13.610;2022-09-19T03:04:17;100159.75;;;12.54;nan
58753;BME280;44525;46.052;13.610;2022-09-19T03:06:55;100154.06;;;12.42;nan
58753;BME280;44525;46.052;13.610;2022-09-19T03:09:27;100163.09;;;12.51;nan
58753;BME280;44525;46.052;13.610;2022-09-19T03:12:11;100158.66;;;12.55;nan
58753;BME280;44525;46.052;13.610;2022-09-19T03:14:39;100155.94;;;12.55;nan
58753;BME280;44525;46.052;13.610;2022-09-19T03:17:06;100151.84;;;12.67;nan
58753;BME280;44525;46.052;13.610;2022-09-19T03:19:32;100155.00;;;12.60;nan
58753;BME280;44525;46.052;13.610;2022-09-19T03:21:58;100148.22;;;12.35;nan
58753;BME280;44525;46.052;13.610;2022-09-19T03:24:24;100159.59;;;12.37;nan
58753;BME280;44525;46.052;13.610;2022-09-19T03:26:51;100159.28;;;12.52;nan
58753;BME280;44525;46.052;13.610;2022-09-19T03:29:17;100153.31;;;12.50;nan
58753;BME280;44525;46.052;13.610;2022-09-19T03:31:43;100152.81;;;12.48;nan
58753;BME280;44525;46.052;13.610;2022-09-19T03:34:11;100143.78;;;12.39;nan
58753;BME280;44525;46.052;13.610;2022-09-19T03:36:38;100145.88;;;12.42;nan
58753;BME280;44525;46.052;13.610;2022-09-19T03:39:06;100139.13;;;12.39;nan
58753;BME280;44525;46.052;13.610;2022-09-19T03:41:32;100139.38;;;12.15;nan
58753;BME280;44525;46.052;13.610;2022-09-19T03:43:58;100137.34;;;12.07;nan
58753;BME280;44525;46.052;13.610;2022-09-19T03:46:27;100123.53;;;12.03;nan
58753;BME280;44525;46.052;13.610;2022-09-19T03:48:56;100124.22;;;12.09;nan
58753;BME280;44525;46.052;13.610;2022-09-19T03:51:21;100132.28;;;12.14;nan
58753;BME280;44525;46.052;13.610;2022-09-19T03:53:47;100128.78;;;12.00;nan
58753;BME280;44525;46.052;13.610;2022-09-19T03:56:13;100137.84;;;11.95;nan
58753;BME280;44525;46.052;13.610;2022-09-19T03:58:40;100138.56;;;12.01;nan
58753;BME280;44525;46.052;13.610;2022-09-19T04:01:06;100138.19;;;11.88;nan
58753;BME280;44525;46.052;13.610;2022-09-19T04:03:36;100127.66;;;12.01;nan
58753;BME280;44525;46.052;13.610;2022-09-19T04:06:02;100116.78;;;12.01;nan
58753;BME280;44525;46.052;13.610;2022-09-19T04:08:29;100114.53;;;11.75;nan
58753;BME280;44525;46.052;13.610;2022-09-19T04:10:54;100119.78;;;11.71;nan
58753;BME280;44525;46.052;13.610;2022-09-19T04:13:20;100117.16;;;11.80;nan
58753;BME280;44525;46.052;13.610;2022-09-19T04:15:50;100122.38;;;11.76;nan
58753;BME280;44525;46.052;13.610;2022-09-19T04:18:17;100125.94;;;11.77;nan
58753;BME280;44525;46.052;13.610;2022-09-19T04:20:44;100118.06;;;11.75;nan
58753;BME280;44525;46.052;13.610;2022-09-19T04:23:10;100118.38;;;11.74;nan
58753;BME280;44525;46.052;13.610;2022-09-19T04:25:42;100120.69;;;11.67;nan
58753;BME280;44525;46.052;13.610;2022-09-19T04:28:09;100130.00;;;11.47;nan
58753;BME280;44525;46.052;13.610;2022-09-19T04:30:37;100129.09;;;11.51;nan
58753;BME280;44525;46.052;13.610;2022-09-19T04:33:07;100125.94;;;11.30;nan
58753;BME280;44525;46.052;13.610;2022-09-19T04:35:34;100133.72;;;11.37;nan
58753;BME280;44525;46.052;13.610;2022-09-19T04:38:09;100132.09;;;11.36;nan
58753;BME280;44525;46.052;13.610;2022-09-19T04:40:42;100135.78;;;11.12;nan
58753;BME280;44525;46.052;13.610;2022-09-19T04:43:10;100134.91;;;10.98;nan
58753;BME280;44525;46.052;13.610;2022-09-19T04:45:36;100140.13;;;10.94;nan
58753;BME280;44525;46.052;13.610;2022-09-19T04:48:03;100136.75;;;10.83;nan
58753;BME280;44525;46.052;13.610;2022-09-19T04:50:35;100139.63;;;10.73;nan
58753;BME280;44525;46.052;13.610;2022-09-19T04:53:02;100139.06;;;10.57;nan
58753;BME280;44525;46.052;13.610;2022-09-19T04:55:29;100139.34;;;10.56;nan
58753;BME280;44525;46.052;13.610;2022-09-19T04:57:56;100138.53;;;10.55;nan
58753;BME280;44525;46.052;13.610;2022-09-19T05:00:22;100144.63;;;10.66;nan
58753;BME280;44525;46.052;13.610;2022-09-19T05:05:36;100142.13;;;10.50;nan
58753;BME280;44525;46.052;13.610;2022-09-19T05:08:03;100146.47;;;10.51;nan
58753;BME280;44525;46.052;13.610;2022-09-19T05:10:30;100149.53;;;10.45;nan
58753;BME280;44525;46.052;13.610;2022-09-19T05:12:57;100155.69;;;10.50;nan
58753;BME280;44525;46.052;13.610;2022-09-19T05:15:23;100154.44;;;10.43;nan
58753;BME280;44525;46.052;13.610;2022-09-19T05:17:51;100162.31;;;10.44;nan
58753;BME280;44525;46.052;13.610;2022-09-19T05:20:19;100168.53;;;10.45;nan
58753;BME280;44525;46.052;13.610;2022-09-19T05:22:46;100165.16;;;10.29;nan
58753;BME280;44525;46.052;13.610;2022-09-19T05:25:11;100170.75;;;10.43;nan
58753;BME280;44525;46.052;13.610;2022-09-19T05:27:41;100176.63;;;10.50;nan
58753;BME280;44525;46.052;13.610;2022-09-19T05:30:07;100182.84;;;10.50;nan
58753;BME280;44525;46.052;13.610;2022-09-19T05:32:33;100187.66;;;10.59;nan
58753;BME280;44525;46.052;13.610;2022-09-19T05:34:59;100186.75;;;10.44;nan
58753;BME280;44525;46.052;13.610;2022-09-19T05:37:26;100189.50;;;10.39;nan
58753;BME280;44525;46.052;13.610;2022-09-19T05:39:52;100192.75;;;10.41;nan
58753;BME280;44525;46.052;13.610;2022-09-19T05:42:18;100198.19;;;10.41;nan
58753;BME280;44525;46.052;13.610;2022-09-19T05:44:43;100204.13;;;10.43;nan
58753;BME280;44525;46.052;13.610;2022-09-19T05:47:09;100204.81;;;10.54;nan
58753;BME280;44525;46.052;13.610;2022-09-19T05:49:35;100212.09;;;10.59;nan
58753;BME280;44525;46.052;13.610;2022-09-19T05:52:01;100205.03;;;10.58;nan
58753;BME280;44525;46.052;13.610;2022-09-19T05:54:46;100196.00;;;10.81;nan
58753;BME280;44525;46.052;13.610;2022-09-19T05:57:12;100204.22;;;11.14;nan
58753;BME280;44525;46.052;13.610;2022-09-19T05:59:37;100202.47;;;11.23;nan
58753;BME280;44525;46.052;13.610;2022-09-19T06:02:04;100192.25;;;11.48;nan
58753;BME280;44525;46.052;13.610;2022-09-19T06:04:30;100187.13;;;11.93;nan
58753;BME280;44525;46.052;13.610;2022-09-19T06:06:56;100196.41;;;12.20;nan
58753;BME280;44525;46.052;13.610;2022-09-19T06:09:21;100203.75;;;12.61;nan
58753;BME280;44525;46.052;13.610;2022-09-19T06:11:46;100193.78;;;12.57;nan
58753;BME280;44525;46.052;13.610;2022-09-19T06:14:12;100197.13;;;12.90;nan
58753;BME280;44525;46.052;13.610;2022-09-19T06:16:40;100199.88;;;13.13;nan
58753;BME280;44525;46.052;13.610;2022-09-19T06:19:07;100204.06;;;13.56;nan
58753;BME280;44525;46.052;13.610;2022-09-19T06:21:33;100199.00;;;13.72;nan
58753;BME280;44525;46.052;13.610;2022-09-19T06:23:59;100204.81;;;14.10;nan
58753;BME280;44525;46.052;13.610;2022-09-19T06:26:26;100201.53;;;13.99;nan
58753;BME280;44525;46.052;13.610;2022-09-19T06:28:52;100207.44;;;14.33;nan
58753;BME280;44525;46.052;13.610;2022-09-19T06:31:19;100212.97;;;14.59;nan
58753;BME280;44525;46.052;13.610;2022-09-19T06:33:44;100206.59;;;14.72;nan
58753;BME280;44525;46.052;13.610;2022-09-19T06:36:10;100213.84;;;14.86;nan
58753;BME280;44525;46.052;13.610;2022-09-19T06:38:36;100223.50;;;15.27;nan
58753;BME280;44525;46.052;13.610;2022-09-19T06:41:09;100223.97;;;15.29;nan
58753;BME280;44525;46.052;13.610;2022-09-19T06:43:34;100221.41;;;15.50;nan
58753;BME280;44525;46.052;13.610;2022-09-19T06:45:59;100215.53;;;15.87;nan
58753;BME280;44525;46.052;13.610;2022-09-19T06:48:40;100225.19;;;16.31;nan
58753;BME280;44525;46.052;13.610;2022-09-19T06:51:06;100223.84;;;16.08;nan
58753;BME280;44525;46.052;13.610;2022-09-19T06:53:32;100226.03;;;16.53;nan
58753;BME280;44525;46.052;13.610;2022-09-19T06:55:57;100225.78;;;16.97;nan
58753;BME280;44525;46.052;13.610;2022-09-19T06:58:23;100228.19;;;17.86;nan
58753;BME280;44525;46.052;13.610;2022-09-19T07:00:49;100236.44;;;17.86;nan
58753;BME280;44525;46.052;13.610;2022-09-19T07:03:16;100232.03;;;18.56;nan
58753;BME280;44525;46.052;13.610;2022-09-19T07:05:44;100243.19;;;19.13;nan
58753;BME280;44525;46.052;13.610;2022-09-19T07:08:11;100242.69;;;19.51;nan
58753;BME280;44525;46.052;13.610;2022-09-19T07:10:39;100248.66;;;19.97;nan
58753;BME280;44525;46.052;13.610;2022-09-19T07:13:05;100243.44;;;19.07;nan
58753;BME280;44525;46.052;13.610;2022-09-19T07:15:33;100248.72;;;18.88;nan
58753;BME280;44525;46.052;13.610;2022-09-19T07:17:59;100253.25;;;19.21;nan
58753;BME280;44525;46.052;13.610;2022-09-19T07:20:26;100249.72;;;19.08;nan
58753;BME280;44525;46.052;13.610;2022-09-19T07:23:12;100255.53;;;19.31;nan
58753;BME280;44525;46.052;13.610;2022-09-19T07:25:40;100262.16;;;18.52;nan
58753;BME280;44525;46.052;13.610;2022-09-19T07:28:08;100261.13;;;18.45;nan
58753;BME280;44525;46.052;13.610;2022-09-19T07:30:35;100258.47;;;18.73;nan
58753;BME280;44525;46.052;13.610;2022-09-19T07:33:02;100265.47;;;19.07;nan
58753;BME280;44525;46.052;13.610;2022-09-19T07:35:32;100258.44;;;19.10;nan
58753;BME280;44525;46.052;13.610;2022-09-19T07:37:57;100255.38;;;18.99;nan
58753;BME280;44525;46.052;13.610;2022-09-19T07:40:23;100272.34;;;18.76;nan
58753;BME280;44525;46.052;13.610;2022-09-19T07:42:49;100264.63;;;19.07;nan
58753;BME280;44525;46.052;13.610;2022-09-19T07:45:16;100264.09;;;18.89;nan
58753;BME280;44525;46.052;13.610;2022-09-19T07:47:46;100266.16;;;18.80;nan
58753;BME280;44525;46.052;13.610;2022-09-19T07:50:14;100265.38;;;18.67;nan
58753;BME280;44525;46.052;13.610;2022-09-19T07:52:41;100266.16;;;18.67;nan
58753;BME280;44525;46.052;13.610;2022-09-19T07:55:07;100275.66;;;18.70;nan
58753;BME280;44525;46.052;13.610;2022-09-19T07:57:35;100266.56;;;19.47;nan
58753;BME280;44525;46.052;13.610;2022-09-19T08:00:00;100279.53;;;19.18;nan
58753;BME280;44525;46.052;13.610;2022-09-19T08:02:26;100284.66;;;19.89;nan
58753;BME280;44525;46.052;13.610;2022-09-19T08:04:52;100268.03;;;19.85;nan
58753;BME280;44525;46.052;13.610;2022-09-19T08:07:17;100267.88;;;20.10;nan
58753;BME280;44525;46.052;13.610;2022-09-19T08:09:43;100266.63;;;20.55;nan
58753;BME280;44525;46.052;13.610;2022-09-19T08:12:08;100279.63;;;21.84;nan
58753;BME280;44525;46.052;13.610;2022-09-19T08:14:38;100282.06;;;21.47;nan
58753;BME280;44525;46.052;13.610;2022-09-19T08:17:04;100278.63;;;21.73;nan
58753;BME280;44525;46.052;13.610;2022-09-19T08:19:29;100280.97;;;21.71;nan
58753;BME280;44525;46.052;13.610;2022-09-19T08:21:59;100282.47;;;21.49;nan
58753;BME280;44525;46.052;13.610;2022-09-19T08:24:24;100280.31;;;21.78;nan
58753;BME280;44525;46.052;13.610;2022-09-19T08:26:50;100286.88;;;22.35;nan
58753;BME280;44525;46.052;13.610;2022-09-19T08:29:15;100291.34;;;22.97;nan
58753;BME280;44525;46.052;13.610;2022-09-19T08:31:41;100299.34;;;22.49;nan
58753;BME280;44525;46.052;13.610;2022-09-19T08:34:08;100299.63;;;23.88;nan
58753;BME280;44525;46.052;13.610;2022-09-19T08:36:34;100301.84;;;23.41;nan
58753;BME280;44525;46.052;13.610;2022-09-19T08:38:59;100292.22;;;22.74;nan
58753;BME280;44525;46.052;13.610;2022-09-19T08:45:14;100298.00;;;24.25;nan
58753;BME280;44525;46.052;13.610;2022-09-19T08:47:16;100293.19;;;23.12;nan
58753;BME280;44525;46.052;13.610;2022-09-19T08:49:55;100293.47;;;23.68;nan
58753;BME280;44525;46.052;13.610;2022-09-19T08:52:30;100297.00;;;24.44;nan
58753;BME280;44525;46.052;13.610;2022-09-19T08:54:59;100303.88;;;24.61;nan
58753;BME280;44525;46.052;13.610;2022-09-19T08:57:39;100300.28;;;24.12;nan
58753;BME280;44525;46.052;13.610;2022-09-19T09:00:20;100304.03;;;24.86;nan
58753;BME280;44525;46.052;13.610;2022-09-19T09:03:06;100301.59;;;24.77;nan
58753;BME280;44525;46.052;13.610;2022-09-19T09:22:15;100287.50;;;25.04;nan
58753;BME280;44525;46.052;13.610;2022-09-19T09:25:12;100281.72;;;25.38;nan
58753;BME280;44525;46.052;13.610;2022-09-19T09:27:56;100295.38;;;24.95;nan
58753;BME280;44525;46.052;13.610;2022-09-19T09:30:23;100282.81;;;25.19;nan
58753;BME280;44525;46.052;13.610;2022-09-19T09:32:54;100287.69;;;25.44;nan
58753;BME280;44525;46.052;13.610;2022-09-19T09:35:28;100275.66;;;25.14;nan
58753;BME280;44525;46.052;13.610;2022-09-19T09:38:02;100290.44;;;24.66;nan
58753;BME280;44525;46.052;13.610;2022-09-19T09:43:32;100279.38;;;24.70;nan
58753;BME280;44525;46.052;13.610;2022-09-19T09:46:04;100269.81;;;24.67;nan
58753;BME280;44525;46.052;13.610;2022-09-19T09:48:38;100272.38;;;24.98;nan
58753;BME280;44525;46.052;13.610;2022-09-19T09:51:26;100266.94;;;24.57;nan
58753;BME280;44525;46.052;13.610;2022-09-19T09:56:33;100271.91;;;24.33;nan
58753;BME280;44525;46.052;13.610;2022-09-19T10:02:26;100271.97;;;23.58;nan
58753;BME280;44525;46.052;13.610;2022-09-19T10:06:03;100269.13;;;23.54;nan
58753;BME280;44525;46.052;13.610;2022-09-19T10:08:28;100265.13;;;23.86;nan
58753;BME280;44525;46.052;13.610;2022-09-19T10:11:15;100274.75;;;23.58;nan
58753;BME280;44525;46.052;13.610;2022-09-19T10:13:54;100275.31;;;23.40;nan
58753;BME280;44525;46.052;13.610;2022-09-19T10:16:32;100275.72;;;23.39;nan
58753;BME280;44525;46.052;13.610;2022-09-19T10:21:42;100277.53;;;23.61;nan
58753;BME280;44525;46.052;13.610;2022-09-19T10:24:44;100278.69;;;23.57;nan
58753;BME280;44525;46.052;13.610;2022-09-19T10:27:25;100280.28;;;23.58;nan
58753;BME280;44525;46.052;13.610;2022-09-19T10:29:59;100287.66;;;23.46;nan
58753;BME280;44525;46.052;13.610;2022-09-19T10:32:29;100282.09;;;23.12;nan
58753;BME280;44525;46.052;13.610;2022-09-19T10:35:00;100281.22;;;23.08;nan
58753;BME280;44525;46.052;13.610;2022-09-19T10:37:26;100292.72;;;23.37;nan
58753;BME280;44525;46.052;13.610;2022-09-19T10:39:59;100285.75;;;23.51;nan
58753;BME280;44525;46.052;13.610;2022-09-19T10:42:32;100284.34;;;23.68;nan
58753;BME280;44525;46.052;13.610;2022-09-19T10:45:13;100284.81;;;23.73;nan
58753;BME280;44525;46.052;13.610;2022-09-19T10:47:41;100287.16;;;23.71;nan
58753;BME280;44525;46.052;13.610;2022-09-19T10:50:13;100291.91;;;23.71;nan
58753;BME280;44525;46.052;13.610;2022-09-19T10:52:40;100291.38;;;23.92;nan
58753;BME280;44525;46.052;13.610;2022-09-19T10:55:16;100294.63;;;24.01;nan
58753;BME280;44525;46.052;13.610;2022-09-19T10:57:55;100289.91;;;24.05;nan
58753;BME280;44525;46.052;13.610;2022-09-19T11:00:30;100293.22;;;24.22;nan
58753;BME280;44525;46.052;13.610;2022-09-19T11:03:21;100286.81;;;24.14;nan
58753;BME280;44525;46.052;13.610;2022-09-19T11:08:52;100300.88;;;23.91;nan
58753;BME280;44525;46.052;13.610;2022-09-19T11:19:43;100297.63;;;23.21;nan
58753;BME280;44525;46.052;13.610;2022-09-19T11:34:26;100304.09;;;24.90;nan
58753;BME280;44525;46.052;13.610;2022-09-19T11:45:18;100296.06;;;25.47;nan
58753;BME280;44525;46.052;13.610;2022-09-19T11:50:33;100301.38;;;26.10;nan
58753;BME280;44525;46.052;13.610;2022-09-19T12:10:00;100314.06;;;25.97;nan
58753;BME280;44525;46.052;13.610;2022-09-19T12:12:31;100314.94;;;26.33;nan
58753;BME280;44525;46.052;13.610;2022-09-19T12:15:26;100313.34;;;26.43;nan
58753;BME280;44525;46.052;13.610;2022-09-19T12:18:09;100311.75;;;26.64;nan
58753;BME280;44525;46.052;13.610;2022-09-19T12:20:39;100296.63;;;26.83;nan
58753;BME280;44525;46.052;13.610;2022-09-19T12:27:06;100295.03;;;26.06;nan
58753;BME280;44525;46.052;13.610;2022-09-19T12:30:20;100306.94;;;26.10;nan
58753;BME280;44525;46.052;13.610;2022-09-19T12:35:18;100305.38;;;26.67;nan
58753;BME280;44525;46.052;13.610;2022-09-19T12:37:59;100308.59;;;25.19;nan
58753;BME280;44525;46.052;13.610;2022-09-19T12:40:36;100302.72;;;25.32;nan
58753;BME280;44525;46.052;13.610;2022-09-19T12:43:23;100310.56;;;26.29;nan
58753;BME280;44525;46.052;13.610;2022-09-19T12:54:19;100297.78;;;27.00;nan
58753;BME280;44525;46.052;13.610;2022-09-19T12:59:30;100300.19;;;27.93;nan
58753;BME280;44525;46.052;13.610;2022-09-19T13:04:49;100301.13;;;27.69;nan
58753;BME280;44525;46.052;13.610;2022-09-19T13:07:35;100294.81;;;27.50;nan
58753;BME280;44525;46.052;13.610;2022-09-19T13:12:38;100302.06;;;27.37;nan
58753;BME280;44525;46.052;13.610;2022-09-19T13:15:17;100302.16;;;27.01;nan
58753;BME280;44525;46.052;13.610;2022-09-19T13:17:45;100303.38;;;26.96;nan
58753;BME280;44525;46.052;13.610;2022-09-19T13:20:37;100299.78;;;26.88;nan
58753;BME280;44525;46.052;13.610;2022-09-19T13:23:26;100305.31;;;27.10;nan
58753;BME280;44525;46.052;13.610;2022-09-19T13:25:56;100293.47;;;26.77;nan
58753;BME280;44525;46.052;13.610;2022-09-19T13:28:25;100299.25;;;27.44;nan
58753;BME280;44525;46.052;13.610;2022-09-19T13:33:42;100296.41;;;27.55;nan
58753;BME280;44525;46.052;13.610;2022-09-19T13:38:59;100301.81;;;26.48;nan
58753;BME280;44525;46.052;13.610;2022-09-19T13:41:43;100297.41;;;26.11;nan
58753;BME280;44525;46.052;13.610;2022-09-19T13:47:04;100292.91;;;25.60;nan
58753;BME280;44525;46.052;13.610;2022-09-19T13:49:49;100297.44;;;25.09;nan
58753;BME280;44525;46.052;13.610;2022-09-19T13:52:28;100301.78;;;25.02;nan
58753;BME280;44525;46.052;13.610;2022-09-19T13:57:37;100296.63;;;25.01;nan
58753;BME280;44525;46.052;13.610;2022-09-19T14:03:01;100304.19;;;25.04;nan
58753;BME280;44525;46.052;13.610;2022-09-19T14:05:33;100293.84;;;25.08;nan
58753;BME280;44525;46.052;13.610;2022-09-19T14:08:01;100294.16;;;24.89;nan
58753;BME280;44525;46.052;13.610;2022-09-19T14:10:44;100304.84;;;24.86;nan
58753;BME280;44525;46.052;13.610;2022-09-19T14:18:47;100294.66;;;24.49;nan
58753;BME280;44525;46.052;13.610;2022-09-19T14:23:59;100295.25;;;24.25;nan
58753;BME280;44525;46.052;13.610;2022-09-19T14:30:19;100300.03;;;24.28;nan
58753;BME280;44525;46.052;13.610;2022-09-19T14:32:41;100290.06;;;24.23;nan
58753;BME280;44525;46.052;13.610;2022-09-19T14:35:43;100297.94;;;24.17;nan
58753;BME280;44525;46.052;13.610;2022-09-19T14:38:36;100295.09;;;24.07;nan
58753;BME280;44525;46.052;13.610;2022-09-19T14:44:24;100294.56;;;23.94;nan
58753;BME280;44525;46.052;13.610;2022-09-19T14:47:05;100292.19;;;23.96;nan
58753;BME280;44525;46.052;13.610;2022-09-19T14:49:51;100290.25;;;23.66;nan
58753;BME280;44525;46.052;13.610;2022-09-19T14:52:22;100297.34;;;23.60;nan
58753;BME280;44525;46.052;13.610;2022-09-19T14:55:03;100296.56;;;23.63;nan
58753;BME280;44525;46.052;13.610;2022-09-19T14:57:44;100291.00;;;23.29;nan
58753;BME280;44525;46.052;13.610;2022-09-19T15:00:17;100294.06;;;23.20;nan
58753;BME280;44525;46.052;13.610;2022-09-19T15:02:45;100294.78;;;23.14;nan
58753;BME280;44525;46.052;13.610;2022-09-19T15:05:14;100292.63;;;23.03;nan
58753;BME280;44525;46.052;13.610;2022-09-19T15:07:41;100292.84;;;22.91;nan
58753;BME280;44525;46.052;13.610;2022-09-19T15:12:53;100300.97;;;22.76;nan
58753;BME280;44525;46.052;13.610;2022-09-19T15:15:22;100301.50;;;22.59;nan
58753;BME280;44525;46.052;13.610;2022-09-19T15:17:50;100302.22;;;22.56;nan
58753;BME280;44525;46.052;13.610;2022-09-19T15:20:17;100302.88;;;22.26;nan
58753;BME280;44525;46.052;13.610;2022-09-19T15:22:52;100311.97;;;22.03;nan
58753;BME280;44525;46.052;13.610;2022-09-19T15:27:56;100311.00;;;21.72;nan
58753;BME280;44525;46.052;13.610;2022-09-19T15:30:26;100313.94;;;21.60;nan
58753;BME280;44525;46.052;13.610;2022-09-19T15:32:59;100310.25;;;21.36;nan
58753;BME280;44525;46.052;13.610;2022-09-19T15:35:26;100314.44;;;21.30;nan
58753;BME280;44525;46.052;13.610;2022-09-19T15:38:00;100318.56;;;21.01;nan
58753;BME280;44525;46.052;13.610;2022-09-19T15:40:28;100318.41;;;20.94;nan
58753;BME280;44525;46.052;13.610;2022-09-19T15:42:55;100327.97;;;20.80;nan
58753;BME280;44525;46.052;13.610;2022-09-19T15:48:16;100325.63;;;20.50;nan
58753;BME280;44525;46.052;13.610;2022-09-19T15:50:54;100335.69;;;20.43;nan
58753;BME280;44525;46.052;13.610;2022-09-19T15:56:08;100345.53;;;20.28;nan
58753;BME280;44525;46.052;13.610;2022-09-19T15:58:43;100342.31;;;20.10;nan
58753;BME280;44525;46.052;13.610;2022-09-19T16:01:13;100345.75;;;19.91;nan
58753;BME280;44525;46.052;13.610;2022-09-19T16:03:46;100348.50;;;19.50;nan
58753;BME280;44525;46.052;13.610;2022-09-19T16:06:24;100353.69;;;19.52;nan
58753;BME280;44525;46.052;13.610;2022-09-19T16:09:11;100362.78;;;19.27;nan
58753;BME280;44525;46.052;13.610;2022-09-19T16:11:42;100358.69;;;18.97;nan
58753;BME280;44525;46.052;13.610;2022-09-19T16:14:23;100363.59;;;18.79;nan
58753;BME280;44525;46.052;13.610;2022-09-19T16:16:51;100364.50;;;18.70;nan
58753;BME280;44525;46.052;13.610;2022-09-19T16:21:57;100374.53;;;18.29;nan